Terminal Aerodrome Forecast
Issued by NWS Louisville, KY

Home | Current Version | Previous Version | Text Only | Print | Product List | Glossary On
Versions: 1 2 3 4 5 6 7 8 9 10 11 12 13 14 15 16 17 18 19
033
FTUS43 KLMK 261749
TAFBWG
TAF
KBWG 261749Z 2618/2718 22012KT P6SM VCTS BKN025CB
     FM262000 21010KT 6SM -SHRA BKN025 OVC080
      TEMPO 2620/2622 VRB15G30KT 1SM TSRA BKN015CB
     FM262230 18005KT 6SM HZ SCT050 BKN100
     FM270800 VRB03KT 4SM BR SCT250
     FM271600 19010KT P6SM SCT050=

USA.gov is the U.S. government's official web portal to all federal, state and local government web resources and services.